Map

Track Data

SID SEASON NUMBER BASIN SUBBASIN NAME ISO_TIME NATURE LAT LON WMO_WIND WMO_PRES WMO_AGENCY TRACK_TYPE DIST2LAND LANDFALL IFLAG USA_AGENCY USA_ATCF_ID USA_LAT USA_LON USA_RECORD USA_STATUS USA_WIND USA_PRES USA_SSHS USA_R34_NE USA_R34_SE USA_R34_SW USA_R34_NW USA_R50_NE USA_R50_SE USA_R50_SW USA_R50_NW USA_R64_NE USA_R64_SE USA_R64_SW USA_R64_NW USA_POCI USA_ROCI USA_RMW USA_EYE TOKYO_LAT TOKYO_LON TOKYO_GRADE TOKYO_WIND TOKYO_PRES TOKYO_R50_DIR TOKYO_R50_LONG TOKYO_R50_SHORT TOKYO_R30_DIR TOKYO_R30_LONG TOKYO_R30_SHORT TOKYO_LAND CMA_LAT CMA_LON CMA_CAT CMA_WIND CMA_PRES HKO_LAT HKO_LON HKO_CAT HKO_WIND HKO_PRES NEWDELHI_LAT NEWDELHI_LON NEWDELHI_GRADE NEWDELHI_WIND NEWDELHI_PRES NEWDELHI_CI NEWDELHI_DP NEWDELHI_POCI REUNION_LAT REUNION_LON REUNION_TYPE REUNION_WIND REUNION_PRES REUNION_TNUM REUNION_CI REUNION_RMW REUNION_R34_NE REUNION_R34_SE REUNION_R34_SW REUNION_R34_NW REUNION_R50_NE REUNION_R50_SE REUNION_R50_SW REUNION_R50_NW REUNION_R64_NE REUNION_R64_SE REUNION_R64_SW REUNION_R64_NW BOM_LAT BOM_LON BOM_TYPE BOM_WIND BOM_PRES BOM_TNUM BOM_CI BOM_RMW BOM_R34_NE BOM_R34_SE BOM_R34_SW BOM_R34_NW BOM_R50_NE BOM_R50_SE BOM_R50_SW BOM_R50_NW BOM_R64_NE BOM_R64_SE BOM_R64_SW BOM_R64_NW BOM_ROCI BOM_POCI BOM_EYE BOM_POS_METHOD BOM_PRES_METHOD NADI_LAT NADI_LON NADI_CAT NADI_WIND NADI_PRES WELLINGTON_LAT WELLINGTON_LON WELLINGTON_WIND WELLINGTON_PRES DS824_LAT DS824_LON DS824_STAGE DS824_WIND DS824_PRES TD9636_LAT TD9636_LON TD9636_STAGE TD9636_WIND TD9636_PRES TD9635_LAT TD9635_LON TD9635_WIND TD9635_PRES TD9635_ROCI NEUMANN_LAT NEUMANN_LON NEUMANN_CLASS NEUMANN_WIND NEUMANN_PRES MLC_LAT MLC_LON MLC_CLASS MLC_WIND MLC_PRES USA_GUST BOM_GUST BOM_GUST_PER REUNION_GUST REUNION_GUST_PER USA_SEAHGT USA_SEARAD_NE USA_SEARAD_SE USA_SEARAD_SW USA_SEARAD_NW STORM_SPEED STORM_DIR
1938355S07432 1939 72 SI MM NOT_NAMED 1938-12-20 18:00:00 NR -7.20000 72.0000 main 1742 1742 __________O___ -1 -7.20000 72.0000 7 31 184
1938355S07432 1939 72 SI MM NOT_NAMED 1938-12-20 21:00:00 NR -8.72609 71.8998 main 1892 1881 __________P___ -1 -8.72609 71.8998 7 30 183
1938355S07432 1939 72 SI MM NOT_NAMED 1938-12-21 00:00:00 NR -10.1527 71.8390 main 1874 1800 __________P___ -1 -10.1527 71.8390 7 27 181
1938355S07432 1939 72 SI MM NOT_NAMED 1938-12-21 03:00:00 NR -11.3776 71.8586 main 1803 1757 __________P___ -1 -11.3776 71.8586 7 22 176
1938355S07432 1939 72 SI MM NOT_NAMED 1938-12-21 06:00:00 NR -12.3000 72.0000 main 1757 1744 __________O___ -1 -12.3000 72.0000 7 15 164
1938355S07432 1939 72 SI MM NOT_NAMED 1938-12-21 09:00:00 NR -12.8565 72.2888 main 1751 1751 __________P___ -1 -12.8565 72.2888 7 11 141
1938355S07432 1939 72 SI MM NOT_NAMED 1938-12-21 12:00:00 NR -13.1297 72.6875 main 1778 1778 __________P___ -1 -13.1297 72.6875 7 9 115
1938355S07432 1939 72 SI MM NOT_NAMED 1938-12-21 15:00:00 NR -13.2380 73.1424 main 1811 1811 __________P___ -1 -13.2380 73.1424 7 9 101
1938355S07432 1939 72 SI MM NOT_NAMED 1938-12-21 18:00:00 NR -13.3000 73.6000 main 1854 1854 __________O___ -1 -13.3000 73.6000 7 9 107
1938355S07432 1939 72 SI MM NOT_NAMED 1938-12-21 21:00:00 NR -13.4882 73.9826 main 1882 1882 __________P___ -1 -13.4882 73.9826 7 8 116
1938355S07432 1939 72 SI MM NOT_NAMED 1938-12-22 00:00:00 NR -13.6572 74.3581 main 1912 1912 __________P___ -1 -13.6572 74.3581 7 8 115
1938355S07432 1939 72 SI MM NOT_NAMED 1938-12-22 03:00:00 NR -13.8226 74.7295 main 1936 1936 __________P___ -1 -13.8226 74.7295 7 8 115
1938355S07432 1939 72 SI MM NOT_NAMED 1938-12-22 06:00:00 NR -14.0000 75.1000 main 1967 1967 __________O___ -1 -14.0000 75.1000 7 8 118
1938355S07432 1939 72 SI MM NOT_NAMED 1938-12-22 09:00:00 NR -14.2105 75.4751 main 1998 1998 __________P___ -1 -14.2105 75.4751 7 8 121
1938355S07432 1939 72 SI MM NOT_NAMED 1938-12-22 12:00:00 NR -14.4348 75.8502 main 2029 2025 __________P___ -1 -14.4348 75.8502 7 9 122
1938355S07432 1939 72 SI MM NOT_NAMED 1938-12-22 15:00:00 NR -14.6667 76.2252 main 2048 2048 __________P___ -1 -14.6667 76.2252 7 9 123
1938355S07432 1939 72 SI MM NOT_NAMED 1938-12-22 18:00:00 NR -14.9000 76.6000 main 2080 2080 __________O___ -1 -14.9000 76.6000 7 9 123
1938355S07432 1939 72 SI MM NOT_NAMED 1938-12-22 21:00:00 NR -15.1296 76.9747 main 2114 2110 __________P___ -1 -15.1296 76.9747 7 9 122
1938355S07432 1939 72 SI MM NOT_NAMED 1938-12-23 00:00:00 NR -15.3555 77.3494 main 2134 2134 __________P___ -1 -15.3555 77.3494 7 9 122
1938355S07432 1939 72 SI MM NOT_NAMED 1938-12-23 03:00:00 NR -15.5786 77.7244 main 2168 2168 __________P___ -1 -15.5786 77.7244 7 9 122
1938355S07432 1939 72 SI MM NOT_NAMED 1938-12-23 06:00:00 NR -15.8000 78.1000 main 2202 __________O___ -1 -15.8000 78.1000 7 9 122

About IBTrACS Database

This database is a web-friendly format of International Best Track Archive for Climate Stewardship (IBTrACS), a global best track data archive curated by NOAA dating back to 1842.

Updated: 2021-12-03